Airfield :
LOGIN :

Register | Disclaimer

   EN    FR    IT 

 










Legend :    VFR   Marginal VFR   IFR   Intensive IFR   Very Intensive IFR
Visi :
Ceiling :
>= 8 km
>= 3000ft
5 to 8 km
1000 to 3000 ft
1500m to 5 km
500 to 1000 ft
800 to 1500m
200 to 500 ft
< 800m
< 200 ft
Symbols :   Thunderstorms  Fog  Heavy snow  Heavy precipitations  Wind > 20 kt
SIGMETs :     Misc.  Thunderstorms  Icing  Turbulence  Mountain Waves  Volcanic Ashes






- Airport Elevation : 238 ft
- IATA code : FAB


EGLF - Farnborough

CURRENT METAR :
  • 181020Z 22005KT 170V240 9999 SCT020 BKN038 21/16 Q1015

EXPIRED METARs :
  • 180950Z 24005KT 210V270 9999 SCT016 BKN043 20/16 Q1015
  • 180920Z 25007KT 9999 SCT015 BKN035 20/16 Q1015
  • 180850Z 25004KT 9999 SCT020 BKN035 19/16 Q1015
  • 180820Z 26003KT 240V300 9999 SCT014 BKN020 20/16 Q1015
  • 180750Z VRB02KT 9000 FEW007 BKN010 19/17 Q1015

TAF TAF EGLF
Valid from the 18 at 09:00 until the 18 at 18:00 UTC


180759Z 1809/1818 24003KT 6000 BKN010
BECMG 1809/1812 9999 SCT035
ATIS : +44 09063 800 400 (*282)



MET'MAP, your aeronautical weather chart ! - Copyright ORBIFLY December 2007 - Disclaimer

ORBIFLY MET'MAP TEAM :

Programming & Development : Alexandra Zaïnal
Original concept : Baudouin d'Aumeries
Technical & hardware support : Manuel Goepfert
Assistance : Marc-Olivier Méhu




SOURCES & CREDITS :

   NOAA